createdAt,value
2018-07-28T00:00:01.244Z,29.6
2018-07-28T00:05:06.112Z,29.0
2018-07-28T00:10:01.175Z,29.4
2018-07-28T00:15:01.097Z,29.2
2018-07-28T00:20:06.100Z,29.5
2018-07-28T00:25:06.100Z,29.3
2018-07-28T00:30:06.176Z,29.2
2018-07-28T00:35:06.113Z,29.0
2018-07-28T00:40:06.243Z,30.0
2018-07-28T00:45:06.114Z,30.7
2018-07-28T00:50:06.229Z,31.4
2018-07-28T00:55:01.134Z,32.5
2018-07-28T01:00:06.177Z,33.1
2018-07-28T01:05:06.110Z,33.3
2018-07-28T01:10:06.176Z,33.2
2018-07-28T01:15:06.113Z,31.8
2018-07-28T01:20:01.225Z,32.0
2018-07-28T01:26:01.099Z,32.2
2018-07-28T01:31:01.174Z,32.1
2018-07-28T01:36:06.109Z,32.0
2018-07-28T01:41:01.160Z,32.9
2018-07-28T01:51:01.244Z,33.3
2018-07-28T01:56:01.138Z,33.8
2018-07-28T02:01:01.180Z,34.6
2018-07-28T02:06:01.114Z,35.4
2018-07-28T02:11:01.171Z,36.0
2018-07-28T02:16:01.102Z,36.4
2018-07-28T02:21:01.172Z,36.6
2018-07-28T02:26:01.107Z,37.0
2018-07-28T02:31:01.239Z,36.9
2018-07-28T02:41:01.178Z,36.1
2018-07-28T02:46:01.114Z,35.7
2018-07-28T02:51:01.182Z,34.2
2018-07-28T02:56:01.122Z,34.4
2018-07-28T03:01:01.173Z,34.6
2018-07-28T03:06:01.119Z,34.8
2018-07-28T03:11:01.241Z,34.6
2018-07-28T03:16:01.110Z,35.2
2018-07-28T03:21:01.179Z,35.8
2018-07-28T03:26:01.110Z,36.5
2018-07-28T03:31:01.183Z,37.0
2018-07-28T03:41:01.102Z,37.2
2018-07-28T03:46:01.099Z,35.4
2018-07-28T03:51:01.229Z,34.7
2018-07-28T03:56:01.100Z,34.6
2018-07-28T04:01:06.168Z,34.9
2018-07-28T04:06:06.111Z,35.2
2018-07-28T04:11:06.178Z,36.2
2018-07-28T04:16:06.116Z,36.6
2018-07-28T04:21:06.119Z,36.8
2018-07-28T04:26:01.132Z,36.9
2018-07-28T04:31:01.198Z,36.7
2018-07-28T04:36:01.139Z,37.0
2018-07-28T04:41:06.176Z,35.8
2018-07-28T04:46:01.148Z,35.1
2018-07-28T04:51:01.214Z,35.8
2018-07-28T04:56:01.147Z,36.4
2018-07-28T05:01:06.251Z,35.2
2018-07-28T05:06:01.107Z,35.8
2018-07-28T05:11:01.162Z,35.6
2018-07-28T05:16:01.179Z,35.0
2018-07-28T05:21:01.168Z,33.6
2018-07-28T05:26:01.106Z,34.3
2018-07-28T05:31:01.236Z,34.6
2018-07-28T05:36:01.114Z,34.4
2018-07-28T05:41:01.174Z,34.2
2018-07-28T05:46:01.113Z,35.1
2018-07-28T05:51:01.178Z,35.5
2018-07-28T06:07:01.168Z,35.1
2018-07-28T06:12:06.174Z,34.6
2018-07-28T06:17:01.154Z,34.4
2018-07-28T06:22:06.283Z,34.0
2018-07-28T06:27:01.150Z,34.2
2018-07-28T06:37:01.232Z,34.9
2018-07-28T06:47:01.169Z,34.3
2018-07-28T06:52:01.235Z,34.8
2018-07-28T07:02:01.234Z,34.3
2018-07-28T07:07:01.116Z,34.8
2018-07-28T07:12:01.175Z,36.1
2018-07-28T07:17:01.105Z,35.5
2018-07-28T07:27:01.170Z,36.9
2018-07-28T07:32:01.234Z,36.0
2018-07-28T07:37:01.106Z,35.1
2018-07-28T07:42:01.173Z,35.3
2018-07-28T07:47:01.112Z,35.4
2018-07-28T07:52:01.115Z,33.9
2018-07-28T07:57:01.121Z,34.2
2018-07-28T08:02:01.234Z,34.4
2018-07-28T08:07:02.133Z,34.5
2018-07-28T08:12:01.169Z,35.0
2018-07-28T08:17:01.111Z,35.5
2018-07-28T08:22:01.180Z,35.3
2018-07-28T08:27:01.111Z,35.1
2018-07-28T08:32:01.166Z,35.2
2018-07-28T08:42:01.227Z,34.5
2018-07-28T08:47:01.171Z,33.5
2018-07-28T08:57:01.236Z,32.8
2018-07-28T09:02:01.176Z,32.7
2018-07-28T09:07:01.176Z,33.5
2018-07-28T09:12:01.238Z,35.4
2018-07-28T09:17:01.110Z,36.0
2018-07-28T09:22:01.176Z,36.4
2018-07-28T09:27:01.101Z,36.0
2018-07-28T09:32:01.172Z,35.7
2018-07-28T09:37:06.098Z,34.2
2018-07-28T09:42:01.105Z,33.9
2018-07-28T09:47:01.204Z,33.6
2018-07-28T09:52:01.199Z,34.5
2018-07-28T09:57:01.109Z,34.7
2018-07-28T10:02:01.176Z,34.2
2018-07-28T10:07:01.094Z,32.8
2018-07-28T10:12:01.162Z,33.5
2018-07-28T10:17:01.099Z,32.5
2018-07-28T10:22:01.162Z,31.7
2018-07-28T10:27:01.104Z,32.7
2018-07-28T10:32:01.238Z,34.3
2018-07-28T10:37:01.117Z,32.7
2018-07-28T10:47:01.232Z,33.2
2018-07-28T10:52:01.172Z,32.4
2018-07-28T10:57:06.107Z,31.2
2018-07-28T11:02:01.206Z,31.7
2018-07-28T11:07:01.150Z,31.2
2018-07-28T11:12:01.239Z,31.1
2018-07-28T11:17:01.160Z,31.2
2018-07-28T11:22:01.198Z,30.6
2018-07-28T11:27:01.144Z,30.5
2018-07-28T11:32:01.348Z,29.3
2018-07-28T11:45:00.854Z,30.8
2018-07-28T11:50:00.785Z,29.4
2018-07-28T11:55:00.747Z,31.1
2018-07-28T12:00:00.773Z,30.8
2018-07-28T12:05:00.753Z,30.6
2018-07-28T12:10:00.792Z,30.3
2018-07-28T12:15:00.726Z,30.4
2018-07-28T12:20:00.802Z,29.6
2018-07-28T12:25:00.729Z,29.2
2018-07-28T12:30:00.733Z,28.8
2018-07-28T12:35:00.882Z,29.1
2018-07-28T12:40:00.869Z,29.4
2018-07-28T12:45:00.741Z,29.2
2018-07-28T12:50:00.746Z,29.0
2018-07-28T12:55:00.745Z,29.3
2018-07-28T13:00:00.877Z,28.7
2018-07-28T13:05:00.755Z,27.9
2018-07-28T13:10:00.878Z,26.8
2018-07-28T13:15:00.831Z,26.7
2018-07-28T13:20:00.818Z,26.0
2018-07-28T13:25:00.779Z,26.6
2018-07-28T13:30:00.917Z,27.0
2018-07-28T13:35:00.803Z,28.4
2018-07-28T13:40:00.849Z,28.6
2018-07-28T13:45:00.780Z,28.8
2018-07-28T13:50:00.866Z,27.4
2018-07-28T13:55:00.756Z,28.3
2018-07-28T14:00:00.830Z,27.6
2018-07-28T14:05:00.792Z,27.0
2018-07-28T14:10:00.768Z,26.6
2018-07-28T14:15:00.807Z,27.4
2018-07-28T14:20:00.834Z,26.1
2018-07-28T14:25:00.818Z,26.6
2018-07-28T14:30:00.967Z,27.7
2018-07-28T14:35:00.770Z,28.4
2018-07-28T14:40:00.906Z,28.7
2018-07-28T14:45:00.808Z,29.1
2018-07-28T14:50:00.907Z,28.7
2018-07-28T14:55:00.783Z,27.2
2018-07-28T15:00:00.780Z,28.2
2018-07-28T15:05:00.813Z,27.6
2018-07-28T15:10:00.850Z,28.6
2018-07-28T15:15:00.791Z,30.3
2018-07-28T15:20:00.915Z,34.9
2018-07-28T15:25:00.817Z,38.2
2018-07-28T15:30:00.864Z,43.1
2018-07-28T15:35:00.800Z,46.9
2018-07-28T15:40:00.877Z,49.4
2018-07-28T15:45:00.810Z,49.4
2018-07-28T15:50:00.933Z,46.7
2018-07-28T15:55:00.808Z,43.9
2018-07-28T16:00:00.870Z,40.7
2018-07-28T16:05:00.809Z,37.2
2018-07-28T16:10:00.813Z,34.8
2018-07-28T16:15:00.815Z,35.4
2018-07-28T16:20:01.009Z,34.3
2018-07-28T16:25:00.814Z,34.1
2018-07-28T16:30:00.819Z,33.7
2018-07-28T16:35:00.829Z,32.6
2018-07-28T16:40:00.841Z,29.7
2018-07-28T16:45:00.839Z,30.0
2018-07-28T16:50:00.816Z,29.2
2018-07-28T16:55:00.894Z,30.0
2018-07-28T17:00:00.894Z,30.2
2018-07-28T17:05:00.830Z,31.5
2018-07-28T17:10:00.897Z,31.6
2018-07-28T17:15:00.827Z,31.1
2018-07-28T17:20:00.897Z,30.7
2018-07-28T17:25:00.838Z,31.1
2018-07-28T17:30:00.841Z,30.7
2018-07-28T17:35:00.847Z,29.7
2018-07-28T17:45:00.970Z,30.0
2018-07-28T17:50:00.915Z,29.2
2018-07-28T17:55:00.854Z,28.7
2018-07-28T18:00:01.068Z,28.2
2018-07-28T18:05:00.855Z,28.5
2018-07-28T18:10:00.922Z,27.1
2018-07-28T18:15:00.857Z,27.9
2018-07-28T18:20:00.929Z,27.8
2018-07-28T18:25:00.859Z,27.6
2018-07-28T18:30:00.995Z,26.7
2018-07-28T18:35:00.865Z,27.9
2018-07-28T18:40:00.925Z,27.4
2018-07-28T18:45:00.864Z,27.9
2018-07-28T18:50:00.932Z,29.0
2018-07-28T18:55:00.892Z,30.5
2018-07-28T19:00:01.000Z,30.0
2018-07-28T19:05:00.869Z,30.2
2018-07-28T19:10:01.003Z,30.3
2018-07-28T19:15:00.892Z,29.2
2018-07-28T19:20:00.936Z,28.2
2018-07-28T19:25:00.874Z,27.5
2018-07-28T19:30:00.937Z,27.3
2018-07-28T19:35:00.884Z,27.7
2018-07-28T19:40:01.010Z,29.0
2018-07-28T19:45:00.884Z,30.0
2018-07-28T19:50:00.891Z,31.3
2018-07-28T19:55:00.876Z,31.5
2018-07-28T20:00:00.949Z,31.4
2018-07-28T20:10:01.022Z,31.1
2018-07-28T20:15:00.892Z,31.1
2018-07-28T20:20:00.958Z,31.6
2018-07-28T20:25:00.892Z,32.5
2018-07-28T20:30:00.971Z,32.9
2018-07-28T20:35:00.898Z,33.7
2018-07-28T20:40:01.057Z,34.2
2018-07-28T20:45:00.901Z,35.0
2018-07-28T20:50:00.967Z,35.7
2018-07-28T20:55:00.906Z,35.6
2018-07-28T21:00:00.975Z,36.2
2018-07-28T21:05:00.910Z,37.8
2018-07-28T21:15:01.156Z,38.2
2018-07-28T21:20:01.051Z,39.6
2018-07-28T21:25:00.914Z,40.0
2018-07-28T21:30:00.996Z,41.6
2018-07-28T21:35:00.926Z,43.3
2018-07-28T21:40:01.046Z,42.6
2018-07-28T21:45:00.930Z,42.1
2018-07-28T21:50:01.063Z,42.2
2018-07-28T21:55:00.954Z,39.4
2018-07-28T22:00:01.314Z,37.3
2018-07-28T22:05:00.975Z,36.5
2018-07-28T22:10:01.003Z,35.2
2018-07-28T22:15:00.943Z,33.6
2018-07-28T22:20:01.042Z,32.8
2018-07-28T22:25:00.943Z,31.8
2018-07-28T22:30:01.017Z,31.0
2018-07-28T22:35:00.955Z,29.0
2018-07-28T22:40:01.063Z,26.4
2018-07-28T22:45:00.958Z,23.4
2018-07-28T22:50:01.066Z,21.0
2018-07-28T22:55:00.971Z,17.7
2018-07-28T23:00:01.061Z,16.0
2018-07-28T23:05:00.979Z,15.0
2018-07-28T23:10:01.038Z,13.5
2018-07-28T23:15:00.965Z,12.6
2018-07-28T23:20:01.091Z,12.0
2018-07-28T23:25:01.007Z,10.9
2018-07-28T23:30:01.037Z,10.6
2018-07-28T23:35:00.998Z,10.8
2018-07-28T23:40:01.043Z,10.2
2018-07-28T23:45:00.976Z,10.9
2018-07-28T23:50:01.015Z,11.6
2018-07-28T23:55:01.008Z,10.8
